createdAt,value
2022-09-10T00:00:13.161Z,1.40
2022-09-10T00:03:17.646Z,2.37
2022-09-10T00:06:20.833Z,1.70
2022-09-10T00:09:24.463Z,1.40
2022-09-10T00:12:27.354Z,1.43
2022-09-10T00:15:30.220Z,1.70
2022-09-10T00:18:34.803Z,1.63
2022-09-10T00:21:37.786Z,1.50
2022-09-10T00:24:41.032Z,1.83
2022-09-10T00:27:43.821Z,1.30
2022-09-10T00:30:49.862Z,1.97
2022-09-10T00:38:37.220Z,1.90
2022-09-10T00:41:41.901Z,1.97
2022-09-10T00:45:03.086Z,2.60
2022-09-10T00:48:12.072Z,2.80
2022-09-10T00:51:15.637Z,1.90
2022-09-10T00:54:22.683Z,1.63
2022-09-10T00:57:27.899Z,1.60
2022-09-10T01:00:31.944Z,1.80
2022-09-10T01:03:36.104Z,2.47
2022-09-10T01:06:40.340Z,1.40
2022-09-10T01:09:45.025Z,1.30
2022-09-10T01:13:14.182Z,1.30
2022-09-10T01:16:23.491Z,1.40
2022-09-10T01:19:58.419Z,1.53
2022-09-10T01:23:26.089Z,1.60
2022-09-10T01:26:52.518Z,1.40
2022-09-10T01:30:04.310Z,1.50
2022-09-10T01:33:15.373Z,1.40
2022-09-10T01:36:25.054Z,1.40
2022-09-10T01:39:29.187Z,1.60
2022-09-10T01:42:38.336Z,1.43
2022-09-10T01:45:59.065Z,1.30
2022-09-10T01:49:28.951Z,1.63
2022-09-10T01:52:42.274Z,1.70
2022-09-10T01:55:57.718Z,1.80
2022-09-10T01:59:10.299Z,1.33
2022-09-10T02:02:25.964Z,2.13
2022-09-10T02:05:31.680Z,1.50
2022-09-10T02:08:40.216Z,1.60
2022-09-10T02:11:48.591Z,1.27
2022-09-10T02:15:02.829Z,1.37
2022-09-10T02:18:22.326Z,1.40
2022-09-10T02:21:25.406Z,1.83
2022-09-10T02:24:28.285Z,1.50
2022-09-10T02:27:31.300Z,1.77
2022-09-10T02:30:34.226Z,1.60
2022-09-10T02:33:38.769Z,1.50
2022-09-10T02:36:41.984Z,1.90
2022-09-10T02:39:45.060Z,1.57
2022-09-10T02:42:48.181Z,1.83
2022-09-10T02:45:57.894Z,1.40
2022-09-10T02:49:02.140Z,1.30
2022-09-10T02:52:08.722Z,1.40
2022-09-10T02:55:14.107Z,1.70
2022-09-10T02:58:18.461Z,1.40
2022-09-10T03:01:24.008Z,1.40
2022-09-10T03:04:40.310Z,1.40
2022-09-10T03:07:44.903Z,1.30
2022-09-10T03:10:47.805Z,1.30
2022-09-10T03:13:52.179Z,1.50
2022-09-10T03:16:55.675Z,1.50
2022-09-10T03:20:02.082Z,1.37
2022-09-10T03:23:04.941Z,1.93
2022-09-10T03:26:08.228Z,1.53
2022-09-10T03:29:11.262Z,1.40
2022-09-10T03:32:15.436Z,1.67
2022-09-10T03:35:19.657Z,2.10
2022-09-10T03:38:23.368Z,1.47
2022-09-10T03:41:27.034Z,1.40
2022-09-10T03:44:33.556Z,1.67
2022-09-10T03:47:37.662Z,1.60
2022-09-10T03:50:44.160Z,1.60
2022-09-10T03:53:47.416Z,1.50
2022-09-10T03:56:52.175Z,3.20
2022-09-10T03:59:54.969Z,1.40
2022-09-10T04:02:58.552Z,2.03
2022-09-10T04:06:02.657Z,1.40
2022-09-10T04:09:05.479Z,1.80
2022-09-10T04:12:08.990Z,1.47
2022-09-10T04:15:13.336Z,1.50
2022-09-10T04:18:16.277Z,1.40
2022-09-10T04:21:20.592Z,1.50
2022-09-10T04:24:25.594Z,1.27
2022-09-10T04:27:28.718Z,1.40
2022-09-10T04:30:32.290Z,1.50
2022-09-10T04:33:35.259Z,1.30
2022-09-10T04:36:40.001Z,1.40
2022-09-10T04:39:44.055Z,1.50
2022-09-10T04:42:47.021Z,1.50
2022-09-10T04:45:49.834Z,1.70
2022-09-10T04:48:53.005Z,1.60
2022-09-10T04:52:00.110Z,1.40
2022-09-10T04:55:03.881Z,1.50
2022-09-10T04:58:07.313Z,1.50
2022-09-10T05:01:10.672Z,1.70
2022-09-10T05:04:13.701Z,1.40
2022-09-10T05:07:17.983Z,2.10
2022-09-10T05:10:24.435Z,1.50
2022-09-10T05:13:27.558Z,1.50
2022-09-10T05:16:30.576Z,1.50
2022-09-10T05:19:33.689Z,1.57
2022-09-10T05:22:43.105Z,1.40
2022-09-10T05:25:47.972Z,1.90
2022-09-10T05:28:53.273Z,1.80
2022-09-10T05:31:57.217Z,1.87
2022-09-10T05:35:02.145Z,1.40
2022-09-10T05:38:08.217Z,1.40
2022-09-10T05:41:13.950Z,1.70
2022-09-10T05:44:21.541Z,1.70
2022-09-10T05:47:24.401Z,2.37
2022-09-10T05:50:28.696Z,1.57
2022-09-10T05:53:33.446Z,1.50
2022-09-10T05:56:36.355Z,1.90
2022-09-10T05:59:39.810Z,1.40
2022-09-10T06:02:45.339Z,1.40
2022-09-10T06:06:01.880Z,1.70
2022-09-10T06:09:19.756Z,1.53
2022-09-10T06:12:34.218Z,1.40
2022-09-10T06:15:38.946Z,3.73
2022-09-10T06:18:44.084Z,2.00
2022-09-10T06:21:50.858Z,1.37
2022-09-10T06:24:55.551Z,2.10
2022-09-10T06:28:01.752Z,3.10
2022-09-10T06:31:05.708Z,1.63
2022-09-10T06:34:10.466Z,1.77
2022-09-10T06:37:13.432Z,1.70
2022-09-10T06:40:18.541Z,1.60
2022-09-10T06:43:23.586Z,2.23
2022-09-10T06:47:30.537Z,1.73
2022-09-10T06:50:10.443Z,1.40
2022-09-10T06:53:15.345Z,1.70
2022-09-10T06:56:20.848Z,1.50
2022-09-10T07:02:53.383Z,1.83
2022-09-10T07:05:57.705Z,1.60
2022-09-10T07:09:03.695Z,3.47
2022-09-10T07:12:12.390Z,1.70
2022-09-10T07:15:17.071Z,1.77
2022-09-10T07:18:20.502Z,1.50
2022-09-10T07:21:25.289Z,1.50
2022-09-10T07:24:28.645Z,1.50
2022-09-10T07:27:41.477Z,1.50
2022-09-10T07:30:45.295Z,3.10
2022-09-10T07:33:50.167Z,1.50
2022-09-10T07:36:56.730Z,2.67
2022-09-10T07:40:00.336Z,1.50
2022-09-10T07:43:05.097Z,1.60
2022-09-10T07:46:09.744Z,1.37
2022-09-10T07:49:13.129Z,1.93
2022-09-10T07:52:18.639Z,1.30
2022-09-10T07:55:25.968Z,1.53
2022-09-10T07:58:32.230Z,1.60
2022-09-10T08:01:36.402Z,1.70
2022-09-10T08:04:39.649Z,1.60
2022-09-10T08:07:46.584Z,2.27
2022-09-10T08:10:49.868Z,1.97
2022-09-10T08:13:56.891Z,1.57
2022-09-10T08:17:03.379Z,1.40
2022-09-10T08:20:10.884Z,1.80
2022-09-10T08:23:18.046Z,1.93
2022-09-10T08:26:24.368Z,1.40
2022-09-10T08:29:29.941Z,1.50
2022-09-10T08:32:35.275Z,1.40
2022-09-10T08:35:39.705Z,2.33
2022-09-10T08:38:43.341Z,1.50
2022-09-10T08:41:53.768Z,1.40
2022-09-10T08:45:08.245Z,1.50
2022-09-10T08:48:19.874Z,1.70
2022-09-10T08:51:28.632Z,1.93
2022-09-10T08:54:37.604Z,1.70
2022-09-10T08:57:45.124Z,1.70
2022-09-10T09:00:54.109Z,1.63
2022-09-10T09:04:03.727Z,2.80
2022-09-10T09:07:15.187Z,2.40
2022-09-10T09:10:28.240Z,1.33
2022-09-10T09:13:51.715Z,1.67
2022-09-10T09:17:13.059Z,2.57
2022-09-10T09:20:19.078Z,1.60
2022-09-10T09:23:34.374Z,1.50
2022-09-10T09:26:38.048Z,1.50
2022-09-10T09:29:47.611Z,2.00
2022-09-10T09:32:52.888Z,1.83
2022-09-10T09:36:00.136Z,2.10
2022-09-10T09:39:16.139Z,1.60
2022-09-10T09:42:25.191Z,1.70
2022-09-10T09:45:36.887Z,2.23
2022-09-10T09:48:42.471Z,1.40
2022-09-10T09:51:46.961Z,1.70
2022-09-10T09:58:35.468Z,1.73
2022-09-10T10:01:42.956Z,1.57
2022-09-10T10:05:02.537Z,1.67
2022-09-10T10:08:05.522Z,1.60
2022-09-10T10:11:09.313Z,1.60
2022-09-10T10:14:22.608Z,1.40
2022-09-10T10:17:37.865Z,1.60
2022-09-10T10:20:43.204Z,1.50
2022-09-10T10:23:46.785Z,1.40
2022-09-10T10:26:50.531Z,1.40
2022-09-10T10:29:56.661Z,1.50
2022-09-10T10:33:01.891Z,1.60
2022-09-10T10:36:16.290Z,1.50
2022-09-10T10:39:27.507Z,1.47
2022-09-10T10:42:35.639Z,1.70
2022-09-10T10:45:52.595Z,1.87
2022-09-10T10:49:07.178Z,1.50
2022-09-10T10:52:21.429Z,2.17
2022-09-10T10:55:29.275Z,1.60
2022-09-10T10:58:56.054Z,1.47
2022-09-10T11:02:08.128Z,1.60
2022-09-10T11:05:23.832Z,2.33
2022-09-10T11:08:33.716Z,2.20
2022-09-10T11:11:41.349Z,1.30
2022-09-10T11:14:49.534Z,1.50
2022-09-10T11:17:59.543Z,1.30
2022-09-10T11:21:13.057Z,1.43
2022-09-10T11:24:22.234Z,2.80
2022-09-10T11:27:30.901Z,1.50
2022-09-10T11:30:35.498Z,1.40
2022-09-10T11:33:47.276Z,1.70
2022-09-10T11:36:56.164Z,1.60
2022-09-10T11:40:05.666Z,1.60
2022-09-10T11:43:14.243Z,1.30
2022-09-10T11:46:23.568Z,1.50
2022-09-10T11:49:38.156Z,1.90
2022-09-10T11:52:41.212Z,1.77
2022-09-10T11:56:05.093Z,1.70
2022-09-10T11:59:22.312Z,1.40
2022-09-10T12:03:05.753Z,1.50
2022-09-10T12:06:16.239Z,1.30
2022-09-10T12:09:29.179Z,1.30
2022-09-10T12:12:42.367Z,1.40
2022-09-10T12:15:52.449Z,2.40
2022-09-10T12:18:57.763Z,1.30
2022-09-10T12:22:05.088Z,1.70
2022-09-10T12:25:30.413Z,1.50
2022-09-10T12:29:05.459Z,2.03
2022-09-10T12:32:30.279Z,2.40
2022-09-10T12:35:46.080Z,1.30
2022-09-10T12:38:57.792Z,1.50
2022-09-10T12:42:02.802Z,1.60
2022-09-10T12:45:09.883Z,1.80
2022-09-10T12:48:14.201Z,2.23
2022-09-10T12:51:32.961Z,1.73
2022-09-10T12:54:53.060Z,1.50
2022-09-10T12:58:01.952Z,1.40
2022-09-10T13:01:14.756Z,1.40
2022-09-10T13:04:30.441Z,1.53
2022-09-10T13:07:41.726Z,1.30
2022-09-10T13:10:47.178Z,1.30
2022-09-10T13:13:59.685Z,2.70
2022-09-10T13:17:04.319Z,3.87
2022-09-10T13:20:31.260Z,1.40
2022-09-10T13:23:48.706Z,1.80
2022-09-10T13:26:53.348Z,1.40
2022-09-10T13:30:12.012Z,1.50
2022-09-10T13:33:22.593Z,2.43
2022-09-10T13:36:34.410Z,1.40
2022-09-10T13:40:15.312Z,2.43
2022-09-10T13:43:31.724Z,1.60
2022-09-10T13:46:38.307Z,1.30
2022-09-10T13:49:52.988Z,1.57
2022-09-10T13:53:00.098Z,2.70
2022-09-10T13:56:10.200Z,1.63
2022-09-10T13:59:25.430Z,1.90
2022-09-10T14:02:41.752Z,1.40
2022-09-10T14:05:50.102Z,1.33
2022-09-10T14:08:57.395Z,1.47
2022-09-10T14:12:03.886Z,1.30
2022-09-10T14:15:08.428Z,1.47
2022-09-10T14:18:12.153Z,1.40
2022-09-10T14:21:18.004Z,1.33
2022-09-10T14:24:30.709Z,1.40
2022-09-10T14:27:35.074Z,1.50
2022-09-10T14:30:38.579Z,1.30
2022-09-10T14:33:41.556Z,1.70
2022-09-10T14:36:45.938Z,1.40
2022-09-10T14:39:49.305Z,1.47
2022-09-10T14:42:52.222Z,1.50
2022-09-10T14:45:55.205Z,1.20
2022-09-10T14:49:09.753Z,1.50
2022-09-10T14:52:14.712Z,1.20
2022-09-10T14:55:18.251Z,1.40
2022-09-10T14:58:21.099Z,1.40
2022-09-10T15:01:24.390Z,1.53
2022-09-10T15:04:28.024Z,1.30
2022-09-10T15:07:32.213Z,1.60
2022-09-10T15:10:35.308Z,1.30
2022-09-10T15:13:41.755Z,1.60
2022-09-10T15:16:44.945Z,1.57
2022-09-10T15:19:48.479Z,1.27
2022-09-10T15:22:52.760Z,1.40
2022-09-10T15:25:58.577Z,1.37
2022-09-10T15:29:01.370Z,1.43
2022-09-10T15:32:04.559Z,1.40
2022-09-10T15:35:08.791Z,1.40
2022-09-10T15:38:14.009Z,1.30
2022-09-10T15:41:17.123Z,1.40
2022-09-10T15:44:20.027Z,1.40
2022-09-10T15:47:22.927Z,1.50
2022-09-10T15:50:25.730Z,1.50
2022-09-10T15:53:33.584Z,1.80
2022-09-10T15:56:36.730Z,1.37
2022-09-10T15:59:40.660Z,1.30
2022-09-10T16:02:47.164Z,1.40
2022-09-10T16:05:49.968Z,3.87
2022-09-10T16:08:57.380Z,1.30
2022-09-10T16:12:00.287Z,1.40
2022-09-10T16:15:03.346Z,1.70
2022-09-10T16:18:06.552Z,1.40
2022-09-10T16:21:12.059Z,1.50
2022-09-10T16:24:16.180Z,1.40
2022-09-10T16:27:19.229Z,1.57
2022-09-10T16:30:22.732Z,1.50
2022-09-10T16:33:25.651Z,1.30
2022-09-10T16:36:28.526Z,1.40
2022-09-10T16:39:32.833Z,1.30
2022-09-10T16:42:35.594Z,1.30
2022-09-10T16:45:38.439Z,1.47
2022-09-10T16:48:42.864Z,1.83
2022-09-10T16:51:47.320Z,1.40
2022-09-10T16:54:52.690Z,1.70
2022-09-10T16:57:55.481Z,1.90
2022-09-10T17:00:59.362Z,2.20
2022-09-10T17:04:03.694Z,1.30
2022-09-10T17:07:06.561Z,1.30
2022-09-10T17:10:11.509Z,1.50
2022-09-10T17:13:14.407Z,1.43
2022-09-10T17:16:23.577Z,1.50
2022-09-10T17:19:27.471Z,1.40
2022-09-10T17:22:30.245Z,1.40
2022-09-10T17:25:34.962Z,2.17
2022-09-10T17:28:38.097Z,1.50
2022-09-10T17:31:41.113Z,1.70
2022-09-10T17:34:44.002Z,1.50
2022-09-10T17:37:47.126Z,1.70
2022-09-10T17:40:58.043Z,2.03
2022-09-10T17:44:01.669Z,1.70
2022-09-10T17:47:04.637Z,1.60
2022-09-10T17:50:08.535Z,2.57
2022-09-10T17:53:11.440Z,1.73
2022-09-10T17:56:18.960Z,1.40
2022-09-10T17:59:24.603Z,1.50
2022-09-10T18:02:30.019Z,1.60
2022-09-10T18:05:32.995Z,1.60
2022-09-10T18:08:36.351Z,1.50
2022-09-10T18:11:42.065Z,1.40
2022-09-10T18:14:44.818Z,2.30
2022-09-10T18:17:47.603Z,1.50
2022-09-10T18:20:50.421Z,1.97
2022-09-10T18:23:54.614Z,2.00
2022-09-10T18:27:08.156Z,2.47
2022-09-10T18:30:17.711Z,1.50
2022-09-10T18:33:24.810Z,1.60
2022-09-10T18:36:28.773Z,2.30
2022-09-10T18:39:33.616Z,1.50
2022-09-10T18:42:42.499Z,1.60
2022-09-10T18:45:48.513Z,2.40
2022-09-10T18:48:55.037Z,4.77
2022-09-10T18:51:58.578Z,2.70
2022-09-10T18:55:01.398Z,5.27
2022-09-10T18:58:09.060Z,9.13
2022-09-10T19:01:18.400Z,7.50
2022-09-10T19:04:23.784Z,6.80
2022-09-10T19:07:26.671Z,6.93
2022-09-10T19:10:30.486Z,4.83
2022-09-10T19:13:39.390Z,4.67
2022-09-10T19:16:42.479Z,2.03
2022-09-10T19:19:50.213Z,1.87
2022-09-10T19:22:53.576Z,1.63
2022-09-10T19:25:58.924Z,1.97
2022-09-10T19:29:04.511Z,2.37
2022-09-10T19:32:11.551Z,1.47
2022-09-10T19:35:18.350Z,1.40
2022-09-10T19:38:37.011Z,1.50
2022-09-10T19:41:44.601Z,1.40
2022-09-10T19:44:52.593Z,1.60
2022-09-10T19:47:58.576Z,1.80
2022-09-10T19:51:03.398Z,1.50
2022-09-10T19:54:07.687Z,1.87
2022-09-10T19:57:10.583Z,2.07
2022-09-10T20:00:36.239Z,1.90
2022-09-10T20:03:45.934Z,1.30
2022-09-10T20:06:50.333Z,1.77
2022-09-10T20:09:53.427Z,1.40
2022-09-10T20:12:57.537Z,1.50
2022-09-10T20:16:02.682Z,1.40
2022-09-10T20:19:08.022Z,1.43
2022-09-10T20:22:14.445Z,2.23
2022-09-10T20:25:22.917Z,1.40
2022-09-10T20:28:28.002Z,3.17
2022-09-10T20:31:41.216Z,1.70
2022-09-10T20:34:46.498Z,1.40
2022-09-10T20:37:51.826Z,1.60
2022-09-10T20:40:59.895Z,1.40
2022-09-10T20:44:07.864Z,1.47
2022-09-10T20:47:13.751Z,1.53
2022-09-10T20:50:19.091Z,1.90
2022-09-10T20:53:27.172Z,1.70
2022-09-10T20:56:32.754Z,1.70
2022-09-10T20:59:41.187Z,1.50
2022-09-10T21:02:46.833Z,1.40
2022-09-10T21:05:55.685Z,1.80
2022-09-10T21:08:59.570Z,1.87
2022-09-10T21:12:05.755Z,1.30
2022-09-10T21:15:12.045Z,1.50
2022-09-10T21:18:16.221Z,1.50
2022-09-10T21:21:20.831Z,1.60
2022-09-10T21:24:23.862Z,2.03
2022-09-10T21:27:26.678Z,1.60
2022-09-10T21:30:29.526Z,1.50
2022-09-10T21:33:34.425Z,1.40
2022-09-10T21:36:38.994Z,1.50
2022-09-10T21:39:41.787Z,1.63
2022-09-10T21:42:45.033Z,1.53
2022-09-10T21:45:48.240Z,1.90
2022-09-10T21:48:52.372Z,1.97
2022-09-10T21:51:55.096Z,1.80
2022-09-10T21:54:57.855Z,1.40
2022-09-10T21:58:00.673Z,1.50
2022-09-10T22:01:04.218Z,1.50
2022-09-10T22:04:08.831Z,1.60
2022-09-10T22:07:12.018Z,1.37
2022-09-10T22:10:14.798Z,2.40
2022-09-10T22:13:17.808Z,2.13
2022-09-10T22:16:22.704Z,1.70
2022-09-10T22:19:27.537Z,1.40
2022-09-10T22:22:30.299Z,1.60
2022-09-10T22:25:33.389Z,1.80
2022-09-10T22:28:37.142Z,2.90
2022-09-10T22:31:40.051Z,1.97
2022-09-10T22:34:44.199Z,1.40
2022-09-10T22:37:46.875Z,1.50
2022-09-10T22:40:51.156Z,1.40
2022-09-10T22:43:54.259Z,1.70
2022-09-10T22:46:57.614Z,1.60
2022-09-10T22:50:01.753Z,1.60
2022-09-10T22:53:04.672Z,1.50
2022-09-10T22:56:08.095Z,1.67
2022-09-10T22:59:13.683Z,1.40
2022-09-10T23:02:16.672Z,1.50
2022-09-10T23:05:20.750Z,1.60
2022-09-10T23:08:25.084Z,3.40
2022-09-10T23:11:29.290Z,2.07
2022-09-10T23:14:33.047Z,1.50
2022-09-10T23:17:35.802Z,1.77
2022-09-10T23:20:39.937Z,1.77
2022-09-10T23:23:46.465Z,1.43
2022-09-10T23:26:49.822Z,1.50
2022-09-10T23:29:52.517Z,3.70
2022-09-10T23:32:55.747Z,1.67
2022-09-10T23:36:00.036Z,1.80
2022-09-10T23:39:05.274Z,1.57
2022-09-10T23:42:08.435Z,1.50
2022-09-10T23:45:12.254Z,1.70
2022-09-10T23:48:15.018Z,1.40
2022-09-10T23:51:22.194Z,2.60
2022-09-10T23:54:25.098Z,1.60
2022-09-10T23:57:27.820Z,2.10
